createdAt,value
2022-08-25T00:02:33.763Z,21.8
2022-08-25T00:32:33.675Z,21.4
2022-08-25T00:47:33.618Z,21.5
2022-08-25T01:02:33.667Z,21.4
2022-08-25T01:17:33.571Z,21.2
2022-08-25T01:32:33.570Z,21.1
2022-08-25T01:47:33.533Z,21
2022-08-25T02:02:33.562Z,21
2022-08-25T02:17:33.465Z,20.9
2022-08-25T02:32:33.474Z,20.8
2022-08-25T02:47:33.405Z,20.2
2022-08-25T03:02:33.409Z,19.8
2022-08-25T03:17:33.352Z,19.9
2022-08-25T03:32:33.358Z,19.9
2022-08-25T03:47:33.298Z,19.5
2022-08-25T04:02:33.400Z,19.3
2022-08-25T04:17:33.248Z,19.4
2022-08-25T04:32:33.255Z,19.5
2022-08-25T04:47:33.215Z,19.3
2022-08-25T05:02:33.199Z,18.9
2022-08-25T05:17:33.162Z,18.9
2022-08-25T05:32:33.139Z,19.9
2022-08-25T05:47:33.089Z,21.7
2022-08-25T06:02:33.092Z,22.6
2022-08-25T06:17:33.032Z,23.5
2022-08-25T06:32:33.037Z,24.4
2022-08-25T06:47:32.975Z,25.2
2022-08-25T07:17:32.964Z,27.4
2022-08-25T07:32:32.942Z,29.1
2022-08-25T07:47:32.918Z,29.5
2022-08-25T08:02:32.902Z,31.8
2022-08-25T08:17:32.815Z,31.9
2022-08-25T08:32:53.284Z,31.8
2022-08-25T08:47:32.765Z,31.8
2022-08-25T09:02:49.972Z,32.6
2022-08-25T09:17:32.732Z,33.3
2022-08-25T09:32:32.722Z,34.8
2022-08-25T09:47:32.838Z,35.2
2022-08-25T10:02:32.680Z,35.6
2022-08-25T10:17:33.412Z,35.3
2022-08-25T10:32:32.580Z,33.1
2022-08-25T10:47:32.555Z,32.1
2022-08-25T11:02:32.557Z,31.4
2022-08-25T11:17:32.511Z,30.5
2022-08-25T11:47:32.446Z,30.2
2022-08-25T12:02:32.430Z,30.2
2022-08-25T12:17:32.396Z,30.3
2022-08-25T12:32:32.366Z,30.5
2022-08-25T12:47:32.455Z,30.8
2022-08-25T13:02:32.449Z,31.1
2022-08-25T13:17:33.880Z,31.3
2022-08-25T13:32:34.440Z,31.6
2022-08-25T14:02:32.381Z,31.9
2022-08-25T14:17:40.327Z,32.1
2022-08-25T14:32:32.180Z,31.9
2022-08-25T14:47:32.127Z,31.9
2022-08-25T15:02:35.303Z,32
2022-08-25T15:17:32.077Z,31.9
2022-08-25T15:32:32.076Z,31.8
2022-08-25T15:47:32.048Z,31.9
2022-08-25T16:02:32.079Z,32.4
2022-08-25T16:17:31.968Z,32.1
2022-08-25T16:32:31.971Z,31.9
2022-08-25T16:47:31.913Z,31.8
2022-08-25T17:02:31.910Z,31.7
2022-08-25T17:17:31.856Z,31.3
2022-08-25T17:32:31.868Z,31.1
2022-08-25T17:47:31.806Z,31
2022-08-25T18:02:31.812Z,30.9
2022-08-25T18:17:31.769Z,30.8
2022-08-25T18:32:31.774Z,30.8
2022-08-25T18:47:31.695Z,30.7
2022-08-25T19:02:31.884Z,30.5
2022-08-25T19:17:37.261Z,29.9
2022-08-25T19:32:31.639Z,29.1
2022-08-25T19:47:31.589Z,29
2022-08-25T20:02:31.607Z,29
2022-08-25T20:17:31.542Z,28.5
2022-08-25T20:47:31.503Z,27.9
2022-08-25T21:02:31.543Z,27.8
2022-08-25T21:17:31.456Z,27.5
2022-08-25T21:32:31.430Z,27.4
2022-08-25T21:47:31.397Z,27.2
2022-08-25T22:02:31.403Z,27
2022-08-25T22:17:31.313Z,26.6
2022-08-25T22:32:31.311Z,26.3
2022-08-25T22:47:31.281Z,25.8
2022-08-25T23:02:31.232Z,25.3
2022-08-25T23:17:31.202Z,25
2022-08-25T23:32:31.206Z,24.6
2022-08-25T23:47:31.146Z,24.3
